Time;durP1;ratioP1;P1;durP2;ratioP2;P2;SDS_P1;SDS_P2;PMS_P1;PMS_P2;Temp;Humidity;BMP_temperature;BMP_pressure;BME280_temperature;BME280_humidity;BME280_pressure;Samples;Min_cycle;Max_cycle;Signal;HPM_P1;HPM_P2
2023/03/24 00:01:00;;;;;;;;;;;18.80;55.10;;;;;;5002282;28;19925;-75
2023/03/24 00:03:26;;;;;;;;;;;18.80;55.10;;;;;;5016708;28;19917;-75
2023/03/24 00:06:00;;;;;;;;;;;18.70;55.00;;;;;;5015046;28;19913;-75
2023/03/24 00:08:29;;;;;;;;;;;18.70;55.00;;;;;;5017072;28;19939;-75
2023/03/24 00:10:57;;;;;;;;;;;18.70;55.10;;;;;;5019986;28;20058;-76
2023/03/24 00:13:22;;;;;;;;;;;18.70;55.10;;;;;;5018733;28;19922;-76
2023/03/24 00:15:48;;;;;;;;;;;18.70;55.20;;;;;;5015239;28;19914;-76
2023/03/24 00:18:13;;;;;;;;;;;18.70;55.20;;;;;;5002457;28;19959;-75
2023/03/24 00:20:41;;;;;;;;;;;18.70;55.10;;;;;;5012207;28;19925;-75
2023/03/24 00:23:06;;;;;;;;;;;18.60;55.20;;;;;;5011704;28;19929;-76
2023/03/24 00:25:34;;;;;;;;;;;18.60;55.20;;;;;;5006222;28;19910;-76
2023/03/24 00:28:00;;;;;;;;;;;18.60;55.10;;;;;;5029330;28;19957;-76
2023/03/24 00:30:26;;;;;;;;;;;18.60;55.10;;;;;;5032909;28;19995;-75
2023/03/24 00:32:51;;;;;;;;;;;18.60;55.10;;;;;;5000395;28;19913;-75
2023/03/24 00:35:17;;;;;;;;;;;18.60;55.20;;;;;;5042255;27;19912;-75
2023/03/24 00:37:43;;;;;;;;;;;18.60;55.20;;;;;;5084227;27;19967;-75
2023/03/24 00:40:11;;;;;;;;;;;18.60;55.30;;;;;;5018955;28;19918;-75
2023/03/24 00:42:37;;;;;;;;;;;18.60;55.30;;;;;;5025410;28;19925;-75
2023/03/24 00:45:03;;;;;;;;;;;18.60;55.30;;;;;;4999039;28;19914;-75
2023/03/24 00:47:35;;;;;;;;;;;18.50;55.30;;;;;;5005359;28;19957;-75
2023/03/24 00:50:02;;;;;;;;;;;18.60;55.40;;;;;;5015928;28;19917;-75
2023/03/24 00:52:32;;;;;;;;;;;18.50;55.30;;;;;;5010704;28;20032;-75
2023/03/24 00:55:00;;;;;;;;;;;18.50;55.40;;;;;;5023853;28;19913;-75
2023/03/24 00:57:28;;;;;;;;;;;18.40;55.40;;;;;;5012179;28;20782;-75
2023/03/24 00:59:54;;;;;;;;;;;18.50;55.40;;;;;;5073196;27;19929;-75
2023/03/24 01:02:24;;;;;;;;;;;18.50;55.50;;;;;;5013035;27;20401;-75
2023/03/24 01:04:53;;;;;;;;;;;18.50;55.60;;;;;;5013849;28;19917;-75
2023/03/24 01:07:20;;;;;;;;;;;18.40;55.40;;;;;;5025291;28;19959;-75
2023/03/24 01:09:50;;;;;;;;;;;18.40;55.50;;;;;;5006473;28;19934;-75
2023/03/24 01:12:20;;;;;;;;;;;18.40;56.20;;;;;;5020336;28;19920;-75
2023/03/24 01:14:46;;;;;;;;;;;18.40;55.50;;;;;;5003425;28;19928;-75
2023/03/24 01:17:12;;;;;;;;;;;18.40;55.50;;;;;;5012153;28;19914;-75
2023/03/24 01:19:39;;;;;;;;;;;18.40;55.60;;;;;;5015593;28;19929;-75
2023/03/24 01:22:05;;;;;;;;;;;18.40;55.70;;;;;;5012037;28;19914;-75
2023/03/24 01:24:30;;;;;;;;;;;18.40;55.70;;;;;;5019535;28;20028;-75
2023/03/24 01:26:55;;;;;;;;;;;18.40;55.70;;;;;;5000074;28;19937;-75
2023/03/24 01:29:21;;;;;;;;;;;18.30;55.60;;;;;;5007011;28;19913;-75
2023/03/24 01:31:46;;;;;;;;;;;18.30;55.70;;;;;;5016494;27;19924;-75
2023/03/24 01:34:12;;;;;;;;;;;18.30;55.80;;;;;;5006064;28;19913;-75
2023/03/24 01:36:37;;;;;;;;;;;18.30;55.80;;;;;;5025705;28;19958;-75
2023/03/24 01:39:04;;;;;;;;;;;18.30;55.90;;;;;;5012087;28;20407;-75
2023/03/24 01:41:31;;;;;;;;;;;18.30;55.90;;;;;;5008898;28;20310;-75
2023/03/24 01:43:57;;;;;;;;;;;18.30;55.90;;;;;;5015457;28;20401;-75
2023/03/24 01:46:22;;;;;;;;;;;18.30;55.90;;;;;;5025625;28;20016;-75
2023/03/24 01:48:49;;;;;;;;;;;18.30;55.80;;;;;;5012182;28;19909;-75
2023/03/24 01:51:25;;;;;;;;;;;18.30;56.40;;;;;;5027527;28;20296;-74
2023/03/24 01:54:01;;;;;;;;;;;18.20;55.80;;;;;;5008756;28;19913;-75
2023/03/24 01:56:27;;;;;;;;;;;18.30;55.80;;;;;;5007451;28;19914;-75
2023/03/24 01:58:55;;;;;;;;;;;18.30;55.80;;;;;;5015479;28;19913;-75
2023/03/24 02:01:20;;;;;;;;;;;18.30;55.90;;;;;;4997545;28;20387;-75
2023/03/24 02:03:46;;;;;;;;;;;18.30;55.90;;;;;;5008931;28;19967;-74
2023/03/24 02:06:11;;;;;;;;;;;18.20;55.90;;;;;;5020883;28;19914;-75
2023/03/24 02:08:43;;;;;;;;;;;18.20;55.90;;;;;;5003510;28;19914;-75
2023/03/24 02:11:08;;;;;;;;;;;18.20;56.00;;;;;;5010245;28;19928;-75
2023/03/24 02:13:34;;;;;;;;;;;18.20;56.00;;;;;;5017862;28;19918;-75
2023/03/24 02:16:18;;;;;;;;;;;18.20;56.00;;;;;;5026921;28;20294;-75
2023/03/24 02:18:53;;;;;;;;;;;18.30;56.00;;;;;;5035646;28;19993;-75
2023/03/24 02:21:38;;;;;;;;;;;18.30;55.80;;;;;;5000647;28;19926;-75
2023/03/24 02:24:09;;;;;;;;;;;18.40;55.70;;;;;;5017008;28;19957;-75
2023/03/24 02:26:41;;;;;;;;;;;18.40;55.50;;;;;;5014794;28;19921;-75
2023/03/24 02:29:10;;;;;;;;;;;18.40;55.40;;;;;;5018237;28;20008;-75
2023/03/24 02:31:41;;;;;;;;;;;18.50;55.40;;;;;;5017709;28;20278;-75
2023/03/24 02:34:25;;;;;;;;;;;18.60;55.30;;;;;;5016538;28;19994;-74
2023/03/24 02:36:57;;;;;;;;;;;18.60;55.10;;;;;;5020047;28;20371;-75
2023/03/24 02:39:28;;;;;;;;;;;18.70;55.00;;;;;;5017910;28;19921;-75
2023/03/24 02:42:12;;;;;;;;;;;18.80;54.80;;;;;;5013232;28;19921;-75
2023/03/24 02:44:54;;;;;;;;;;;18.80;54.70;;;;;;5013971;28;19913;-75
2023/03/24 02:47:23;;;;;;;;;;;18.80;54.60;;;;;;5009566;28;19918;-75
2023/03/24 02:50:02;;;;;;;;;;;18.90;54.60;;;;;;5008795;28;19917;-75
2023/03/24 02:52:33;;;;;;;;;;;18.90;54.50;;;;;;5014303;28;19913;-75
2023/03/24 02:55:18;;;;;;;;;;;18.90;54.50;;;;;;5017033;28;20028;-75
2023/03/24 02:57:55;;;;;;;;;;;18.90;54.50;;;;;;5012191;27;19917;-75
2023/03/24 03:00:25;;;;;;;;;;;18.90;54.50;;;;;;5016961;28;20316;-75
2023/03/24 03:02:58;;;;;;;;;;;18.90;54.50;;;;;;5020384;27;19917;-75
2023/03/24 03:05:27;;;;;;;;;;;18.80;54.50;;;;;;5066741;27;19915;-75
2023/03/24 03:07:53;;;;;;;;;;;18.80;54.60;;;;;;5016712;27;19919;-75
2023/03/24 03:10:22;;;;;;;;;;;18.80;54.60;;;;;;5028369;28;19917;-75
2023/03/24 03:12:50;;;;;;;;;;;18.80;54.60;;;;;;5021735;28;19917;-75
2023/03/24 03:15:18;;;;;;;;;;;18.80;54.60;;;;;;5012576;28;19917;-75
2023/03/24 03:17:47;;;;;;;;;;;18.80;54.60;;;;;;5013013;28;19964;-75
2023/03/24 03:20:17;;;;;;;;;;;18.80;54.70;;;;;;5010803;28;20340;-75
2023/03/24 03:23:06;;;;;;;;;;;18.80;54.70;;;;;;5021656;28;19917;-75
2023/03/24 03:25:45;;;;;;;;;;;18.70;54.70;;;;;;5011417;28;19913;-74
2023/03/24 03:28:11;;;;;;;;;;;18.70;54.70;;;;;;5029155;28;19913;-76
2023/03/24 03:30:37;;;;;;;;;;;18.70;54.80;;;;;;5002491;28;20016;-75
2023/03/24 03:33:07;;;;;;;;;;;18.70;54.90;;;;;;5026033;28;19913;-75
2023/03/24 03:35:37;;;;;;;;;;;18.60;55.00;;;;;;5022203;28;19913;-75
2023/03/24 03:38:03;;;;;;;;;;;18.70;55.10;;;;;;5041349;27;19911;-75
2023/03/24 03:40:30;;;;;;;;;;;18.60;55.00;;;;;;5049380;27;20012;-75
2023/03/24 03:42:56;;;;;;;;;;;18.60;55.10;;;;;;4998368;28;19934;-75
2023/03/24 03:45:21;;;;;;;;;;;18.60;55.20;;;;;;5027123;28;19996;-75
2023/03/24 03:47:47;;;;;;;;;;;18.60;55.20;;;;;;5017224;28;19917;-75
2023/03/24 03:50:12;;;;;;;;;;;18.60;55.10;;;;;;5027198;28;19913;-75
2023/03/24 03:52:38;;;;;;;;;;;18.50;55.10;;;;;;5018409;28;19913;-75
2023/03/24 03:55:03;;;;;;;;;;;18.60;55.30;;;;;;5015838;28;19918;-75
2023/03/24 03:57:29;;;;;;;;;;;18.60;55.30;;;;;;5034997;27;20022;-75
2023/03/24 03:59:55;;;;;;;;;;;18.50;55.20;;;;;;4995621;28;19918;-75
2023/03/24 04:02:27;;;;;;;;;;;18.50;55.30;;;;;;5013237;28;20032;-75
2023/03/24 04:05:13;;;;;;;;;;;18.50;55.40;;;;;;5010597;28;20445;-75
2023/03/24 04:07:56;;;;;;;;;;;18.40;55.40;;;;;;5022337;27;19913;-75
2023/03/24 04:10:23;;;;;;;;;;;18.40;55.50;;;;;;4998492;28;20328;-75
2023/03/24 04:13:01;;;;;;;;;;;18.50;55.60;;;;;;5008286;28;19917;-75
2023/03/24 04:15:27;;;;;;;;;;;18.40;55.60;;;;;;5008366;28;19923;-75
2023/03/24 04:17:56;;;;;;;;;;;18.40;55.50;;;;;;5026224;28;19914;-75
2023/03/24 04:20:33;;;;;;;;;;;18.40;55.60;;;;;;5007951;28;19922;-75
2023/03/24 04:23:01;;;;;;;;;;;18.40;55.60;;;;;;5016026;28;19920;-74
2023/03/24 04:25:37;;;;;;;;;;;18.40;55.50;;;;;;5012963;28;19924;-75
2023/03/24 04:28:05;;;;;;;;;;;18.40;55.50;;;;;;5022484;28;20298;-75
2023/03/24 04:30:31;;;;;;;;;;;18.50;55.60;;;;;;5029156;27;20356;-75
2023/03/24 04:32:58;;;;;;;;;;;18.50;55.60;;;;;;5021069;27;19956;-75
2023/03/24 04:35:30;;;;;;;;;;;18.50;55.60;;;;;;5017770;28;19961;-75
2023/03/24 04:37:56;;;;;;;;;;;18.50;55.50;;;;;;5031612;28;19956;-75
2023/03/24 04:40:22;;;;;;;;;;;18.50;55.60;;;;;;4997952;28;19917;-75
2023/03/24 04:42:51;;;;;;;;;;;18.50;55.60;;;;;;5007659;28;19921;-75
2023/03/24 04:45:16;;;;;;;;;;;18.50;55.70;;;;;;5013236;28;20478;-75
2023/03/24 04:47:52;;;;;;;;;;;18.50;55.60;;;;;;5011083;28;20000;-75
2023/03/24 04:50:29;;;;;;;;;;;18.50;55.70;;;;;;5002034;28;19938;-75
2023/03/24 04:52:55;;;;;;;;;;;18.50;55.60;;;;;;5013486;28;20294;-75
2023/03/24 04:55:27;;;;;;;;;;;18.50;55.70;;;;;;4995995;28;19913;-75
2023/03/24 04:57:52;;;;;;;;;;;18.50;55.60;;;;;;5016533;28;19917;-75
2023/03/24 05:00:18;;;;;;;;;;;18.50;55.70;;;;;;5012803;28;19965;-75
2023/03/24 05:02:44;;;;;;;;;;;18.50;55.70;;;;;;5002805;28;19928;-74
2023/03/24 05:05:10;;;;;;;;;;;18.40;55.70;;;;;;5021705;28;20323;-75
2023/03/24 05:07:35;;;;;;;;;;;18.50;55.80;;;;;;5004182;28;19917;-75
2023/03/24 05:10:00;;;;;;;;;;;18.40;55.80;;;;;;5023449;28;20020;-74
2023/03/24 05:12:26;;;;;;;;;;;18.40;55.80;;;;;;5022579;28;20301;-75
2023/03/24 05:14:51;;;;;;;;;;;18.40;55.80;;;;;;5009408;28;20009;-74
2023/03/24 05:17:17;;;;;;;;;;;18.40;55.90;;;;;;5010982;28;19966;-75
2023/03/24 05:19:42;;;;;;;;;;;18.40;56.00;;;;;;5018752;28;19921;-74
2023/03/24 05:22:08;;;;;;;;;;;18.40;56.10;;;;;;5015280;27;19996;-75
2023/03/24 05:24:33;;;;;;;;;;;18.40;56.00;;;;;;5046649;28;19912;-75
2023/03/24 05:26:59;;;;;;;;;;;18.40;56.10;;;;;;5044498;27;19962;-75
2023/03/24 05:29:25;;;;;;;;;;;18.40;56.10;;;;;;5012181;28;19966;-75
2023/03/24 05:31:50;;;;;;;;;;;18.40;56.00;;;;;;5017391;28;19913;-75
2023/03/24 05:34:16;;;;;;;;;;;18.40;56.10;;;;;;5005901;28;19913;-75
2023/03/24 05:36:41;;;;;;;;;;;18.40;56.30;;;;;;5005074;28;20366;-75
2023/03/24 05:39:06;;;;;;;;;;;18.40;56.20;;;;;;5018083;28;19923;-75
2023/03/24 05:41:32;;;;;;;;;;;18.40;56.20;;;;;;5008908;28;20367;-75
2023/03/24 05:43:57;;;;;;;;;;;18.40;56.30;;;;;;5012559;28;19940;-75
2023/03/24 05:46:23;;;;;;;;;;;18.40;56.30;;;;;;5044944;28;19915;-75
2023/03/24 05:48:48;;;;;;;;;;;18.40;56.30;;;;;;5062215;27;19917;-75
2023/03/24 05:51:14;;;;;;;;;;;18.30;56.30;;;;;;5002345;28;19917;-75
2023/03/24 05:53:39;;;;;;;;;;;18.30;56.40;;;;;;5037002;28;19970;-75
2023/03/24 05:56:05;;;;;;;;;;;18.30;56.50;;;;;;5015239;28;20378;-75
2023/03/24 05:58:33;;;;;;;;;;;18.30;56.60;;;;;;5003552;28;19932;-75
2023/03/24 06:00:58;;;;;;;;;;;18.30;56.60;;;;;;5017827;28;20397;-75
2023/03/24 06:03:24;;;;;;;;;;;18.30;56.70;;;;;;5017893;28;19956;-75
2023/03/24 06:05:49;;;;;;;;;;;18.30;56.70;;;;;;5014329;28;20324;-75
2023/03/24 06:08:15;;;;;;;;;;;18.30;56.70;;;;;;5007224;28;19913;-75
2023/03/24 06:10:41;;;;;;;;;;;18.30;56.60;;;;;;5005319;28;20453;-75
2023/03/24 06:13:07;;;;;;;;;;;18.30;56.60;;;;;;5099720;28;19948;-75
2023/03/24 06:15:33;;;;;;;;;;;18.30;56.70;;;;;;5026079;27;19951;-75
2023/03/24 06:17:59;;;;;;;;;;;18.20;56.70;;;;;;5012940;28;19917;-75
2023/03/24 06:20:26;;;;;;;;;;;18.30;56.80;;;;;;5024018;28;19924;-75
2023/03/24 06:22:53;;;;;;;;;;;18.30;56.90;;;;;;5026870;28;19913;-75
2023/03/24 06:25:25;;;;;;;;;;;18.30;56.90;;;;;;5015254;28;19966;-75
2023/03/24 06:27:50;;;;;;;;;;;18.20;56.80;;;;;;5019468;28;20007;-75
2023/03/24 06:30:16;;;;;;;;;;;18.30;56.90;;;;;;5011270;28;20343;-75
2023/03/24 06:32:45;;;;;;;;;;;18.30;57.00;;;;;;5020628;28;19943;-75
2023/03/24 06:35:14;;;;;;;;;;;18.30;57.00;;;;;;5026142;28;19918;-75
2023/03/24 06:37:39;;;;;;;;;;;18.30;56.90;;;;;;5007153;28;19962;-75
2023/03/24 06:40:06;;;;;;;;;;;18.30;56.90;;;;;;5019274;28;19913;-75
2023/03/24 06:42:31;;;;;;;;;;;18.30;56.80;;;;;;5016775;28;19920;-75
2023/03/24 06:44:57;;;;;;;;;;;18.30;56.90;;;;;;5019159;28;20004;-75
2023/03/24 06:47:22;;;;;;;;;;;18.30;57.00;;;;;;5012951;28;19921;-75
2023/03/24 06:49:47;;;;;;;;;;;18.30;57.10;;;;;;5010815;28;19913;-75
2023/03/24 06:52:13;;;;;;;;;;;18.30;57.10;;;;;;5020921;28;19956;-75
2023/03/24 06:54:38;;;;;;;;;;;18.30;57.00;;;;;;5017784;28;19913;-75
2023/03/24 06:57:04;;;;;;;;;;;18.30;57.00;;;;;;5009369;28;19921;-75
2023/03/24 06:59:30;;;;;;;;;;;18.40;57.10;;;;;;5011935;28;19913;-74
2023/03/24 07:01:55;;;;;;;;;;;18.40;56.90;;;;;;5012878;27;19913;-75
2023/03/24 07:04:24;;;;;;;;;;;18.40;57.00;;;;;;5001773;28;19999;-74
2023/03/24 07:06:50;;;;;;;;;;;18.40;56.90;;;;;;5017605;28;19910;-74
2023/03/24 07:09:16;;;;;;;;;;;18.40;56.70;;;;;;5014103;28;20399;-74
2023/03/24 07:11:42;;;;;;;;;;;18.40;56.90;;;;;;4999919;28;19918;-74
2023/03/24 07:14:07;;;;;;;;;;;18.40;56.90;;;;;;5017881;28;19921;-74
2023/03/24 07:16:32;;;;;;;;;;;18.40;56.90;;;;;;4999538;28;20009;-74
2023/03/24 07:18:58;;;;;;;;;;;18.40;57.20;;;;;;5028253;28;19924;-74
2023/03/24 07:21:23;;;;;;;;;;;18.40;57.40;;;;;;5014712;28;19937;-74
2023/03/24 07:23:49;;;;;;;;;;;18.40;57.20;;;;;;5004623;28;19928;-75
2023/03/24 07:26:15;;;;;;;;;;;18.40;57.00;;;;;;5001945;28;20367;-75
2023/03/24 07:28:40;;;;;;;;;;;18.40;57.00;;;;;;5013538;28;19982;-75
2023/03/24 07:31:09;;;;;;;;;;;18.40;57.10;;;;;;5010937;28;20375;-75
2023/03/24 07:33:35;;;;;;;;;;;18.40;57.10;;;;;;5014103;28;19958;-74
2023/03/24 07:36:00;;;;;;;;;;;18.40;57.10;;;;;;5009657;28;20359;-74
2023/03/24 07:38:26;;;;;;;;;;;18.50;57.10;;;;;;5014790;28;20294;-74
2023/03/24 07:40:51;;;;;;;;;;;18.40;57.00;;;;;;5012924;28;19924;-74
2023/03/24 07:43:17;;;;;;;;;;;18.50;57.00;;;;;;5082399;27;19994;-74
2023/03/24 07:45:44;;;;;;;;;;;18.50;57.00;;;;;;4995037;28;19909;-75
2023/03/24 07:48:09;;;;;;;;;;;18.40;57.00;;;;;;5010048;28;20011;-75
2023/03/24 07:50:34;;;;;;;;;;;18.40;57.10;;;;;;5022060;28;20012;-76
2023/03/24 07:53:00;;;;;;;;;;;18.40;57.00;;;;;;5024146;28;20278;-77
2023/03/24 07:55:26;;;;;;;;;;;18.40;57.30;;;;;;5017655;28;19966;-76
2023/03/24 07:57:51;;;;;;;;;;;18.40;57.20;;;;;;5019585;28;19992;-76
2023/03/24 08:00:17;;;;;;;;;;;18.30;57.10;;;;;;5023775;28;19921;-77
2023/03/24 08:02:43;;;;;;;;;;;18.40;57.10;;;;;;5018067;27;19924;-77
2023/03/24 08:05:13;;;;;;;;;;;18.40;57.10;;;;;;5006463;28;19929;-77
2023/03/24 08:07:51;;;;;;;;;;;18.40;57.10;;;;;;4999090;28;19914;-76
2023/03/24 08:10:17;;;;;;;;;;;18.40;57.10;;;;;;5003852;28;20383;-77
2023/03/24 08:12:42;;;;;;;;;;;18.40;57.00;;;;;;4994727;28;19924;-77
2023/03/24 08:15:08;;;;;;;;;;;18.40;57.00;;;;;;5000857;28;20509;-76
2023/03/24 08:17:34;;;;;;;;;;;18.40;56.90;;;;;;5009928;28;19914;-77
2023/03/24 08:19:59;;;;;;;;;;;18.50;57.00;;;;;;5016089;28;21788;-76
2023/03/24 08:22:26;;;;;;;;;;;18.40;56.90;;;;;;5011175;28;19917;-76
2023/03/24 08:24:51;;;;;;;;;;;18.40;56.80;;;;;;5012456;28;19924;-76
2023/03/24 08:27:16;;;;;;;;;;;18.40;56.70;;;;;;5009613;28;20312;-75
2023/03/24 08:29:42;;;;;;;;;;;18.50;56.80;;;;;;5003528;28;19936;-75
2023/03/24 08:32:07;;;;;;;;;;;18.40;56.80;;;;;;5009862;28;19910;-75
2023/03/24 08:34:33;;;;;;;;;;;18.50;57.00;;;;;;5012349;28;19920;-75
2023/03/24 08:36:58;;;;;;;;;;;18.40;57.00;;;;;;5016656;28;20414;-76
2023/03/24 08:39:24;;;;;;;;;;;18.40;57.10;;;;;;5005090;28;19917;-75
2023/03/24 08:41:49;;;;;;;;;;;18.40;57.20;;;;;;5019146;28;19917;-75
2023/03/24 08:44:15;;;;;;;;;;;18.40;57.20;;;;;;4995919;28;20375;-75
2023/03/24 08:46:41;;;;;;;;;;;18.40;57.30;;;;;;5011078;27;20298;-75
2023/03/24 08:49:06;;;;;;;;;;;18.40;57.30;;;;;;4999280;28;19914;-75
2023/03/24 08:51:32;;;;;;;;;;;18.30;57.30;;;;;;5012531;28;19920;-76
2023/03/24 08:53:57;;;;;;;;;;;18.30;57.40;;;;;;5010265;27;19917;-76
2023/03/24 08:56:23;;;;;;;;;;;18.40;57.70;;;;;;5005260;28;20055;-75
2023/03/24 08:58:50;;;;;;;;;;;18.40;57.30;;;;;;5014667;28;19922;-75
2023/03/24 09:01:16;;;;;;;;;;;18.40;57.20;;;;;;5011124;28;19989;-75
2023/03/24 09:03:43;;;;;;;;;;;18.40;57.40;;;;;;5006050;28;20271;-75
2023/03/24 09:06:09;;;;;;;;;;;18.40;57.40;;;;;;5008103;28;19974;-75
2023/03/24 09:08:35;;;;;;;;;;;18.40;57.30;;;;;;5010549;28;19918;-76
2023/03/24 09:11:00;;;;;;;;;;;18.40;57.30;;;;;;5010454;28;20272;-76
2023/03/24 09:13:26;;;;;;;;;;;18.40;57.20;;;;;;5021421;28;19935;-76
2023/03/24 09:15:52;;;;;;;;;;;18.40;57.20;;;;;;4999041;28;20426;-75
2023/03/24 09:18:17;;;;;;;;;;;18.40;57.20;;;;;;4998448;28;20287;-75
2023/03/24 09:20:43;;;;;;;;;;;18.40;57.20;;;;;;4993845;28;19926;-76
2023/03/24 09:23:09;;;;;;;;;;;18.40;57.20;;;;;;4992137;28;20320;-75
2023/03/24 09:25:34;;;;;;;;;;;18.40;57.30;;;;;;5008769;28;19913;-75
2023/03/24 09:28:01;;;;;;;;;;;18.40;57.20;;;;;;5016076;28;20291;-75
2023/03/24 09:30:26;;;;;;;;;;;18.40;57.20;;;;;;5012643;28;20294;-75
2023/03/24 09:32:52;;;;;;;;;;;18.40;57.20;;;;;;5018652;28;19913;-75
2023/03/24 09:35:17;;;;;;;;;;;18.40;57.20;;;;;;5014947;28;20393;-76
2023/03/24 09:37:43;;;;;;;;;;;18.40;57.10;;;;;;5001055;28;19917;-76
2023/03/24 09:40:14;;;;;;;;;;;18.40;57.10;;;;;;5004909;28;19978;-76
2023/03/24 09:42:39;;;;;;;;;;;18.40;57.20;;;;;;4999624;28;20001;-76
2023/03/24 09:45:15;;;;;;;;;;;18.40;57.40;;;;;;5005632;28;19953;-76
2023/03/24 09:47:48;;;;;;;;;;;18.40;57.20;;;;;;5022342;28;20291;-76
2023/03/24 09:50:24;;;;;;;;;;;18.40;57.00;;;;;;5021534;28;19918;-76
2023/03/24 09:52:52;;;;;;;;;;;18.40;57.00;;;;;;5019232;28;20264;-76
2023/03/24 09:55:24;;;;;;;;;;;18.40;56.90;;;;;;5021480;28;19940;-76
2023/03/24 09:57:50;;;;;;;;;;;18.40;57.00;;;;;;4994403;28;19917;-76
2023/03/24 10:00:17;;;;;;;;;;;18.40;57.00;;;;;;5015593;28;19928;-76
2023/03/24 10:02:43;;;;;;;;;;;18.40;57.50;;;;;;5009935;28;19924;-76
2023/03/24 10:05:12;;;;;;;;;;;18.40;56.80;;;;;;5005192;28;19913;-75
2023/03/24 10:07:38;;;;;;;;;;;18.40;56.70;;;;;;5016773;28;19920;-76
2023/03/24 10:10:33;;;;;;;;;;;18.40;56.90;;;;;;5019140;28;19921;-76
2023/03/24 10:13:06;;;;;;;;;;;18.50;56.80;;;;;;5003196;28;19921;-76
2023/03/24 10:15:42;;;;;;;;;;;18.50;56.80;;;;;;5007944;28;19925;-76
2023/03/24 10:18:11;;;;;;;;;;;18.50;56.80;;;;;;5019797;28;19921;-75
2023/03/24 10:20:45;;;;;;;;;;;18.50;56.80;;;;;;5010402;28;19962;-74
2023/03/24 10:23:14;;;;;;;;;;;18.50;56.90;;;;;;5017801;28;19917;-75
2023/03/24 10:25:56;;;;;;;;;;;18.50;56.70;;;;;;5010968;28;19914;-74
2023/03/24 10:28:39;;;;;;;;;;;18.50;56.90;;;;;;5009414;28;20012;-74
2023/03/24 10:31:08;;;;;;;;;;;18.50;56.70;;;;;;5014376;28;19917;-75
2023/03/24 10:33:34;;;;;;;;;;;18.50;56.60;;;;;;5013863;28;19914;-75
2023/03/24 10:36:08;;;;;;;;;;;18.60;56.60;;;;;;5007261;28;19914;-76
2023/03/24 10:38:33;;;;;;;;;;;18.70;56.60;;;;;;5017036;28;19921;-76
2023/03/24 10:40:59;;;;;;;;;;;18.80;56.30;;;;;;4994807;28;19918;-76
2023/03/24 10:43:24;;;;;;;;;;;18.90;56.00;;;;;;4992873;28;19918;-76
2023/03/24 10:45:54;;;;;;;;;;;19.00;55.60;;;;;;5008029;28;19942;-75
2023/03/24 10:48:38;;;;;;;;;;;19.10;56.20;;;;;;4995423;28;19917;-76
2023/03/24 10:51:04;;;;;;;;;;;19.20;55.60;;;;;;5017772;28;19917;-76
2023/03/24 10:53:30;;;;;;;;;;;19.30;55.50;;;;;;5021842;28;19965;-75
2023/03/24 10:55:55;;;;;;;;;;;19.40;55.50;;;;;;5023173;27;20004;-75
2023/03/24 10:58:27;;;;;;;;;;;19.40;55.10;;;;;;4997580;28;19909;-75
2023/03/24 11:00:52;;;;;;;;;;;19.50;54.60;;;;;;5022337;28;19924;-75
2023/03/24 11:03:25;;;;;;;;;;;19.60;54.20;;;;;;5019951;27;19914;-76
2023/03/24 11:05:50;;;;;;;;;;;19.60;53.60;;;;;;5014652;28;19921;-76
2023/03/24 11:08:16;;;;;;;;;;;19.70;53.20;;;;;;5005933;28;19913;-75
2023/03/24 11:10:41;;;;;;;;;;;19.80;53.10;;;;;;5013439;28;19944;-76
2023/03/24 11:13:15;;;;;;;;;;;19.90;52.90;;;;;;5012980;28;19917;-76
2023/03/24 11:15:40;;;;;;;;;;;19.90;52.90;;;;;;4994580;28;19936;-77
2023/03/24 11:18:07;;;;;;;;;;;19.90;52.80;;;;;;4995010;28;19909;-76
2023/03/24 11:20:33;;;;;;;;;;;20.00;52.80;;;;;;5013604;28;19928;-76
2023/03/24 11:23:00;;;;;;;;;;;20.00;52.90;;;;;;5016039;28;19915;-76
2023/03/24 11:25:26;;;;;;;;;;;20.00;52.90;;;;;;5011553;28;19917;-76
2023/03/24 11:27:53;;;;;;;;;;;20.00;52.90;;;;;;5011905;28;19958;-76
2023/03/24 11:30:19;;;;;;;;;;;20.10;52.60;;;;;;5010864;28;20398;-76
2023/03/24 11:32:45;;;;;;;;;;;20.20;52.70;;;;;;5021202;27;19952;-76
2023/03/24 11:35:16;;;;;;;;;;;20.10;52.50;;;;;;5010152;28;19913;-76
2023/03/24 11:37:41;;;;;;;;;;;20.20;52.50;;;;;;5003068;28;19913;-77
2023/03/24 11:40:15;;;;;;;;;;;20.30;52.20;;;;;;5014020;28;19941;-77
2023/03/24 11:42:44;;;;;;;;;;;20.30;52.00;;;;;;5010759;28;19951;-76
2023/03/24 11:45:25;;;;;;;;;;;20.30;52.20;;;;;;5010326;28;19917;-76
2023/03/24 11:47:52;;;;;;;;;;;20.30;51.90;;;;;;5011907;28;19994;-77
2023/03/24 11:50:18;;;;;;;;;;;20.30;52.10;;;;;;4994727;28;19917;-78
2023/03/24 11:53:05;;;;;;;;;;;20.30;52.10;;;;;;5020658;28;19918;-77
2023/03/24 11:55:35;;;;;;;;;;;20.30;52.00;;;;;;5007788;28;19917;-77
2023/03/24 11:58:08;;;;;;;;;;;20.30;52.00;;;;;;5010154;28;19920;-77
2023/03/24 12:00:46;;;;;;;;;;;20.30;51.80;;;;;;5004457;28;19978;-77
2023/03/24 12:03:31;;;;;;;;;;;20.30;52.00;;;;;;5012626;28;19909;-78
2023/03/24 12:06:18;;;;;;;;;;;20.20;52.10;;;;;;5010543;28;19935;-77
2023/03/24 12:08:45;;;;;;;;;;;20.20;52.00;;;;;;5009580;28;19917;-77
2023/03/24 12:11:15;;;;;;;;;;;20.20;52.20;;;;;;5018671;28;20012;-77
2023/03/24 12:13:41;;;;;;;;;;;20.10;52.10;;;;;;5023076;28;20443;-77
2023/03/24 12:16:19;;;;;;;;;;;20.10;52.20;;;;;;4994127;28;19910;-77
2023/03/24 12:18:51;;;;;;;;;;;20.10;52.50;;;;;;5029566;28;19962;-77
2023/03/24 12:21:18;;;;;;;;;;;20.20;52.30;;;;;;5017502;28;19982;-77
2023/03/24 12:23:56;;;;;;;;;;;20.20;52.30;;;;;;5010875;28;19921;-77
2023/03/24 12:26:28;;;;;;;;;;;20.10;52.20;;;;;;4993565;28;19952;-77
2023/03/24 12:28:59;;;;;;;;;;;20.10;52.20;;;;;;5004960;28;19935;-77
2023/03/24 12:31:40;;;;;;;;;;;20.10;52.20;;;;;;5012808;28;20398;-77
2023/03/24 12:34:19;;;;;;;;;;;20.10;52.30;;;;;;5014833;28;20265;-77
2023/03/24 12:36:44;;;;;;;;;;;20.10;52.40;;;;;;5013241;28;19917;-77
2023/03/24 12:39:10;;;;;;;;;;;20.20;52.00;;;;;;5013424;28;19967;-77
2023/03/24 12:41:42;;;;;;;;;;;20.40;51.90;;;;;;5010134;28;19914;-77
2023/03/24 12:44:27;;;;;;;;;;;20.30;52.00;;;;;;5009448;28;19968;-77
2023/03/24 12:47:00;;;;;;;;;;;20.30;52.00;;;;;;5009921;28;19910;-77
2023/03/24 12:49:36;;;;;;;;;;;20.30;52.00;;;;;;5010664;28;19913;-78
2023/03/24 12:52:01;;;;;;;;;;;20.20;51.70;;;;;;5019509;28;19921;-77
2023/03/24 12:54:30;;;;;;;;;;;20.20;51.90;;;;;;5027418;28;19917;-77
2023/03/24 12:57:09;;;;;;;;;;;20.10;52.10;;;;;;5029380;28;19912;-77
2023/03/24 12:59:36;;;;;;;;;;;20.10;52.10;;;;;;5009125;28;20306;-77
2023/03/24 13:02:20;;;;;;;;;;;20.30;51.90;;;;;;5014183;28;20282;-77
2023/03/24 13:04:46;;;;;;;;;;;20.30;51.70;;;;;;5027664;28;19920;-77
2023/03/24 13:07:13;;;;;;;;;;;20.30;51.80;;;;;;5029274;28;19909;-77
2023/03/24 13:09:39;;;;;;;;;;;20.20;51.90;;;;;;5010699;28;19909;-77
2023/03/24 13:12:06;;;;;;;;;;;20.30;51.70;;;;;;5023359;28;20283;-77
2023/03/24 13:14:45;;;;;;;;;;;20.30;51.60;;;;;;5020324;28;19913;-77
2023/03/24 13:17:16;;;;;;;;;;;20.40;51.60;;;;;;5012985;28;19914;-78
2023/03/24 13:19:42;;;;;;;;;;;20.50;51.30;;;;;;5002039;28;21873;-77
2023/03/24 13:22:10;;;;;;;;;;;20.50;51.30;;;;;;5009183;28;19918;-77
2023/03/24 13:24:36;;;;;;;;;;;20.60;51.00;;;;;;5009258;28;19910;-77
2023/03/24 13:27:20;;;;;;;;;;;20.70;50.80;;;;;;5009632;28;20264;-76
2023/03/24 13:29:49;;;;;;;;;;;20.70;50.80;;;;;;5008879;28;19909;-76
2023/03/24 13:32:23;;;;;;;;;;;20.70;50.50;;;;;;4999142;28;19917;-76
2023/03/24 13:34:49;;;;;;;;;;;20.70;50.70;;;;;;5008231;28;19910;-76
2023/03/24 13:37:15;;;;;;;;;;;20.80;50.60;;;;;;5010575;28;19917;-76
2023/03/24 13:39:42;;;;;;;;;;;20.80;50.60;;;;;;5008336;28;19917;-76
2023/03/24 13:42:13;;;;;;;;;;;20.80;50.50;;;;;;5009429;28;19920;-77
2023/03/24 13:44:43;;;;;;;;;;;20.80;50.60;;;;;;4992452;28;20288;-76
2023/03/24 13:47:12;;;;;;;;;;;20.70;50.40;;;;;;5008998;28;19917;-77
2023/03/24 13:49:38;;;;;;;;;;;20.70;50.50;;;;;;5009357;28;20001;-76
2023/03/24 13:52:05;;;;;;;;;;;20.70;50.40;;;;;;5012178;28;19979;-76
2023/03/24 13:54:30;;;;;;;;;;;20.70;50.40;;;;;;5007395;28;19918;-76
2023/03/24 13:57:02;;;;;;;;;;;20.70;50.50;;;;;;5011526;28;19916;-77
2023/03/24 13:59:31;;;;;;;;;;;20.70;50.30;;;;;;5023345;28;19934;-76
2023/03/24 14:02:10;;;;;;;;;;;20.80;50.20;;;;;;4996371;28;19940;-76
2023/03/24 14:04:43;;;;;;;;;;;20.80;50.30;;;;;;5024579;28;19959;-77
2023/03/24 14:07:41;;;;;;;;;;;20.80;50.30;;;;;;5008860;28;19913;-77
2023/03/24 14:10:25;;;;;;;;;;;21.00;50.10;;;;;;4976321;28;19909;-77
2023/03/24 14:12:54;;;;;;;;;;;21.00;50.20;;;;;;4992108;28;19917;-76
2023/03/24 14:15:24;;;;;;;;;;;21.00;50.20;;;;;;5023051;28;21199;-76
2023/03/24 14:17:52;;;;;;;;;;;21.00;50.00;;;;;;5008555;28;19917;-76
2023/03/24 14:20:28;;;;;;;;;;;21.00;50.00;;;;;;4992338;28;20003;-76
2023/03/24 14:22:54;;;;;;;;;;;21.00;50.00;;;;;;5012813;28;19917;-76
2023/03/24 14:25:19;;;;;;;;;;;20.90;49.90;;;;;;5015112;28;19909;-76